Time;durP1;ratioP1;P1;durP2;ratioP2;P2;SDS_P1;SDS_P2;PMS_P1;PMS_P2;Temp;Humidity;BMP_temperature;BMP_pressure;BME280_temperature;BME280_humidity;BME280_pressure;Samples;Min_cycle;Max_cycle;Signal;HPM_P1;HPM_P2
2021/10/18 00:01:21;;;;;;;18.00;16.07;;;9.80;89.40;;;8.49;91.19;98548.78;5067651;28;20492;-73
2021/10/18 00:03:48;;;;;;;18.60;16.80;;;9.70;89.30;;;8.50;92.01;98547.81;5065867;28;20510;-72
2021/10/18 00:06:15;;;;;;;17.80;15.87;;;9.70;90.00;;;8.58;91.51;98554.13;5066118;28;20571;-73
2021/10/18 00:08:42;;;;;;;19.10;17.10;;;9.70;90.00;;;8.62;90.89;98558.09;5084241;28;20449;-72
2021/10/18 00:11:10;;;;;;;18.20;16.30;;;9.80;89.40;;;8.49;91.48;98564.97;5065123;28;20551;-72
2021/10/18 00:13:37;;;;;;;18.13;16.23;;;9.70;89.40;;;8.49;91.41;98558.72;5073719;28;20447;-72
2021/10/18 00:16:05;;;;;;;17.10;15.40;;;9.70;89.50;;;8.53;91.26;98559.22;5065756;28;20507;-72
2021/10/18 00:18:32;;;;;;;18.10;16.30;;;9.70;89.70;;;8.65;90.45;98560.41;5071622;28;20808;-72
2021/10/18 00:20:59;;;;;;;17.60;15.67;;;9.80;89.30;;;8.65;90.24;98563.09;5066245;28;20890;-72
2021/10/18 00:23:26;;;;;;;18.50;16.50;;;9.80;88.60;;;8.60;90.44;98565.53;5068254;28;20449;-73
2021/10/18 00:25:54;;;;;;;17.37;15.73;;;9.80;88.30;;;8.47;90.55;98561.63;5064475;28;20909;-72
2021/10/18 00:28:22;;;;;;;17.43;15.63;;;9.70;88.50;;;8.30;91.67;98565.56;5065152;28;20459;-72
2021/10/18 00:30:49;;;;;;;18.87;16.87;;;9.60;89.80;;;8.36;91.23;98564.78;5066824;28;20448;-72
2021/10/18 00:33:17;;;;;;;17.23;15.43;;;9.50;90.00;;;8.26;92.48;98564.22;5068930;28;20969;-72
2021/10/18 00:35:44;;;;;;;16.27;14.67;;;9.50;90.40;;;8.21;92.75;98564.81;5060534;28;20477;-72
2021/10/18 00:38:11;;;;;;;17.67;16.00;;;9.40;90.60;;;8.11;93.52;98573.16;5070695;28;20456;-72
2021/10/18 00:40:38;;;;;;;18.27;16.47;;;9.40;91.10;;;8.27;92.57;98580.22;5078369;28;20497;-73
2021/10/18 00:43:05;;;;;;;16.50;14.90;;;9.40;91.00;;;8.35;92.56;98590.03;5063885;28;20540;-73
2021/10/18 00:45:34;;;;;;;16.43;14.93;;;9.50;90.70;;;8.23;93.09;98585.13;5068801;28;20656;-74
2021/10/18 00:48:01;;;;;;;17.83;16.13;;;9.50;90.80;;;8.18;93.29;98584.00;5065010;28;20495;-73
2021/10/18 00:50:28;;;;;;;18.97;17.07;;;9.40;91.00;;;8.16;93.72;98569.91;5063762;28;21039;-72
2021/10/18 00:52:56;;;;;;;19.27;16.67;;;9.40;91.20;;;8.16;93.71;98577.97;5068376;28;20953;-73
2021/10/18 00:55:23;;;;;;;17.80;15.97;;;9.40;91.30;;;8.33;92.99;98575.94;5062725;28;20558;-73
2021/10/18 00:57:51;;;;;;;17.93;16.03;;;9.50;91.30;;;8.44;91.94;98572.78;5067209;28;20452;-73
2021/10/18 01:00:19;;;;;;;18.10;16.30;;;9.60;90.70;;;8.51;91.50;98580.97;5060600;28;20513;-73
2021/10/18 01:02:47;;;;;;;17.27;15.47;;;9.60;90.50;;;8.47;92.20;98583.16;5064553;28;20498;-73
2021/10/18 01:05:15;;;;;;;17.03;15.27;;;9.70;90.20;;;8.50;92.19;98582.81;5064991;28;20537;-72
2021/10/18 01:07:42;;;;;;;18.20;16.40;;;9.70;90.50;;;8.47;91.53;98588.56;5081323;28;20555;-73
2021/10/18 01:10:10;;;;;;;18.03;16.03;;;9.70;90.20;;;8.23;92.58;98577.03;5070650;28;20460;-73
2021/10/18 01:12:37;;;;;;;17.13;15.43;;;9.60;90.30;;;8.11;93.42;98577.72;5065237;28;20495;-73
2021/10/18 01:15:05;;;;;;;18.30;16.40;;;9.40;90.90;;;8.10;93.67;98582.25;5065820;28;20571;-73
2021/10/18 01:17:32;;;;;;;17.43;15.63;;;9.40;91.30;;;8.10;94.05;98578.72;5080442;28;20563;-72
2021/10/18 01:20:01;;;;;;;18.40;16.50;;;9.30;91.40;;;8.05;94.27;98568.53;5077224;28;20485;-72
2021/10/18 01:22:29;;;;;;;17.67;15.87;;;9.30;91.60;;;8.04;94.35;98572.25;5065869;28;20572;-72
2021/10/18 01:24:56;;;;;;;17.67;15.83;;;9.30;91.70;;;8.02;94.63;98574.28;5064568;28;20483;-72
2021/10/18 01:27:23;;;;;;;17.00;15.30;;;9.20;91.80;;;8.05;94.38;98571.22;5061409;28;20574;-72
2021/10/18 01:29:50;;;;;;;17.90;16.10;;;9.30;92.00;;;8.02;94.28;98576.97;5060883;28;20515;-73
2021/10/18 01:32:17;;;;;;;18.37;16.40;;;9.20;92.10;;;7.92;94.88;98575.38;5063008;28;20452;-72
2021/10/18 01:34:44;;;;;;;17.60;15.80;;;9.10;92.30;;;7.88;94.66;98568.72;5065442;28;20472;-73
2021/10/18 01:37:11;;;;;;;19.03;17.13;;;9.10;92.40;;;8.00;94.44;98570.94;5062189;28;20560;-71
2021/10/18 01:39:39;;;;;;;19.10;17.10;;;9.10;92.60;;;8.03;93.26;98563.31;5060692;28;20475;-72
2021/10/18 01:42:06;;;;;;;21.27;19.03;;;9.20;91.70;;;7.97;93.36;98572.13;5059786;28;20492;-73
2021/10/18 01:44:34;;;;;;;19.73;16.50;;;9.10;91.60;;;8.04;93.05;98574.94;5064888;28;20762;-72
2021/10/18 01:47:01;;;;;;;20.23;17.10;;;9.20;91.30;;;8.05;92.34;98564.00;5065519;28;20579;-71
2021/10/18 01:49:27;;;;;;;21.23;18.93;;;9.20;91.10;;;7.88;93.14;98563.31;5063369;28;20484;-71
2021/10/18 01:51:55;;;;;;;20.73;18.60;;;9.10;91.30;;;7.87;93.51;98571.56;5060873;28;20464;-71
2021/10/18 01:54:21;;;;;;;21.70;19.60;;;9.00;91.30;;;7.93;92.46;98571.66;5063514;28;20501;-71
2021/10/18 01:56:50;;;;;;;20.33;18.20;;;9.10;91.10;;;7.93;92.62;98574.34;5058478;28;20567;-71
2021/10/18 01:59:17;;;;;;;22.73;20.40;;;9.00;91.10;;;7.83;93.26;98578.34;5068446;28;20548;-73
2021/10/18 02:01:47;;;;;;;21.90;19.60;;;9.00;91.30;;;7.73;93.74;98584.00;5065939;28;20467;-72
2021/10/18 02:04:14;;;;;;;22.90;20.60;;;9.00;91.60;;;7.98;92.08;98586.44;5066826;28;20515;-72
2021/10/18 02:06:41;;;;;;;23.57;21.07;;;9.10;91.10;;;7.96;92.13;98580.38;5067592;28;20552;-74
2021/10/18 02:09:08;;;;;;;22.83;20.53;;;9.10;90.80;;;7.96;92.69;98585.75;5065077;28;20456;-72
2021/10/18 02:11:35;;;;;;;22.87;20.40;;;9.10;90.70;;;8.00;91.90;98582.53;5065139;28;20662;-72
2021/10/18 02:14:04;;;;;;;24.93;22.27;;;9.10;90.50;;;7.94;91.56;98584.09;5062346;28;20636;-72
2021/10/18 02:16:31;;;;;;;25.97;23.27;;;9.10;90.30;;;7.97;91.63;98584.78;5069746;28;20448;-71
2021/10/18 02:18:58;;;;;;;25.10;22.50;;;9.10;90.40;;;7.91;92.11;98583.66;5065175;28;21017;-71
2021/10/18 02:21:25;;;;;;;24.27;21.67;;;9.20;90.20;;;7.72;93.30;98585.00;5064133;28;20460;-71
2021/10/18 02:23:52;;;;;;;24.93;22.10;;;9.00;90.90;;;7.82;92.85;98580.22;5066133;28;20457;-71
2021/10/18 02:26:19;;;;;;;25.30;22.60;;;9.00;91.20;;;7.71;93.67;98594.09;5062124;28;20461;-72
2021/10/18 02:28:46;;;;;;;26.30;23.50;;;8.90;91.30;;;7.62;94.31;98587.97;5068559;28;20613;-72
2021/10/18 02:31:14;;;;;;;24.50;21.87;;;8.90;91.90;;;7.70;94.47;98589.75;5066804;28;21002;-71
2021/10/18 02:33:41;;;;;;;24.13;21.57;;;8.90;92.10;;;7.73;93.79;98586.69;5066894;28;20551;-71
2021/10/18 02:36:09;;;;;;;24.17;21.67;;;8.90;91.90;;;7.73;93.84;98587.50;5065004;28;20487;-71
2021/10/18 02:38:38;;;;;;;23.97;21.57;;;9.00;91.70;;;7.62;94.39;98594.16;5063761;28;20469;-72
2021/10/18 02:41:05;;;;;;;27.47;22.83;;;8.90;92.10;;;7.57;95.20;98593.03;5056621;28;20900;-72
2021/10/18 02:43:35;;;;;;;25.47;22.80;;;8.80;92.50;;;7.53;95.40;98597.97;5070261;28;21347;-72
2021/10/18 02:46:02;;;;;;;30.53;22.60;;;8.80;92.70;;;7.45;95.72;98587.25;5064583;28;20465;-73
2021/10/18 02:48:30;;;;;;;27.73;24.37;;;8.70;93.00;;;7.63;95.15;98597.69;5065949;28;20902;-72
2021/10/18 02:50:59;;;;;;;27.47;24.67;;;8.70;93.20;;;7.49;95.40;98589.41;5062788;28;20471;-73
2021/10/18 02:53:26;;;;;;;28.70;25.70;;;8.70;92.80;;;7.51;95.57;98583.88;5070429;28;20456;-72
2021/10/18 02:55:53;;;;;;;27.07;24.13;;;8.70;93.40;;;7.50;95.77;98592.94;5065343;28;20484;-72
2021/10/18 02:58:20;;;;;;;25.47;22.77;;;8.70;93.50;;;7.50;96.13;98587.56;5065114;28;20859;-72
2021/10/18 03:00:47;;;;;;;27.33;24.33;;;8.70;93.90;;;7.59;95.82;98602.59;5065188;28;20453;-73
2021/10/18 03:03:14;;;;;;;25.87;23.20;;;8.70;94.10;;;7.63;95.90;98609.28;5067698;28;20534;-72
2021/10/18 03:05:43;;;;;;;25.43;22.43;;;8.80;93.60;;;7.62;95.78;98613.00;5063430;28;20505;-72
2021/10/18 03:08:10;;;;;;;27.00;24.03;;;8.80;93.30;;;7.71;95.64;98616.44;5064345;28;20486;-72
2021/10/18 03:10:40;;;;;;;26.23;23.40;;;8.90;93.40;;;7.72;95.21;98617.28;5064935;28;20461;-72
2021/10/18 03:13:07;;;;;;;25.10;22.40;;;8.90;93.00;;;7.68;95.78;98619.50;5081808;28;20976;-72
2021/10/18 03:15:34;;;;;;;27.83;22.27;;;8.90;93.20;;;7.81;94.88;98613.53;5062502;28;20480;-71
2021/10/18 03:18:01;;;;;;;24.73;22.33;;;9.00;92.70;;;7.80;95.13;98614.50;5068684;28;20459;-72
2021/10/18 03:20:28;;;;;;;26.17;23.47;;;9.00;92.80;;;7.94;94.16;98619.06;5065808;28;20460;-71
2021/10/18 03:22:57;;;;;;;25.17;22.23;;;9.10;92.30;;;8.21;92.91;98614.09;5065237;28;20469;-71
2021/10/18 03:25:24;;;;;;;26.30;23.43;;;9.30;91.80;;;8.13;93.26;98616.03;5070433;28;20475;-71
2021/10/18 03:27:51;;;;;;;27.10;24.27;;;9.20;91.90;;;8.17;93.24;98623.56;5064175;28;21012;-71
2021/10/18 03:30:18;;;;;;;28.87;24.67;;;9.30;91.80;;;8.09;94.16;98612.88;5061986;28;20968;-72
2021/10/18 03:32:46;;;;;;;26.23;23.57;;;9.30;91.90;;;8.18;93.66;98622.53;5063821;28;20989;-72
2021/10/18 03:35:13;;;;;;;32.50;24.67;;;9.40;91.50;;;8.12;93.73;98626.00;5066035;28;20476;-72
2021/10/18 03:37:40;;;;;;;31.30;25.97;;;9.40;91.40;;;8.16;93.84;98624.59;5062993;28;20549;-72
2021/10/18 03:40:12;;;;;;;27.40;24.03;;;9.40;91.80;;;8.26;93.33;98620.75;5061302;28;20466;-72
2021/10/18 03:42:39;;;;;;;28.07;24.90;;;9.50;91.50;;;8.32;93.46;98626.25;5063101;28;21687;-72
2021/10/18 03:45:07;;;;;;;29.93;25.03;;;9.50;91.50;;;8.36;92.83;98634.78;5063124;28;20469;-72
2021/10/18 03:47:34;;;;;;;31.63;26.30;;;9.50;91.40;;;8.47;92.63;98634.34;5063412;28;21060;-73
2021/10/18 03:50:01;;;;;;;32.53;29.00;;;9.60;91.30;;;8.48;92.24;98630.63;5067347;28;20453;-73
2021/10/18 03:52:29;;;;;;;30.20;26.87;;;9.70;91.10;;;8.48;92.46;98627.06;5065029;28;20517;-72
2021/10/18 03:54:56;;;;;;;28.47;25.47;;;9.70;91.10;;;8.36;93.29;98624.03;5060710;28;20480;-72
2021/10/18 03:57:24;;;;;;;30.77;27.40;;;9.60;91.00;;;8.64;91.60;98624.25;5064981;28;20467;-72
2021/10/18 03:59:51;;;;;;;27.67;24.67;;;9.70;90.90;;;8.55;91.50;98640.66;5064799;28;20450;-72
2021/10/18 04:02:18;;;;;;;27.20;23.63;;;9.70;90.40;;;8.52;92.13;98646.44;5063521;28;20460;-71
2021/10/18 04:04:45;;;;;;;29.10;26.00;;;9.70;90.40;;;8.47;92.45;98645.09;5063105;28;20479;-71
2021/10/18 04:07:12;;;;;;;29.63;26.33;;;9.70;90.60;;;8.47;92.72;98647.78;5054829;28;20550;-72
2021/10/18 04:09:39;;;;;;;32.00;26.17;;;9.70;90.70;;;8.52;92.27;98655.34;5065960;28;20537;-71
2021/10/18 04:12:07;;;;;;;28.20;25.17;;;9.70;91.00;;;8.47;92.54;98652.34;5063918;28;20583;-70
2021/10/18 04:14:35;;;;;;;30.03;25.93;;;9.70;91.00;;;8.54;91.64;98660.53;5069248;28;20498;-71
2021/10/18 04:17:02;;;;;;;29.70;25.80;;;9.70;90.60;;;8.63;91.60;98667.50;5061658;28;20448;-72
2021/10/18 04:19:30;;;;;;;31.07;27.67;;;9.70;90.50;;;8.49;91.82;98667.28;5064739;28;20891;-71
2021/10/18 04:21:57;;;;;;;32.77;28.33;;;9.70;90.70;;;8.53;91.64;98661.56;5063868;28;20464;-71
2021/10/18 04:24:23;;;;;;;32.23;28.07;;;9.70;90.50;;;8.64;91.30;98669.19;5064996;28;21371;-71
2021/10/18 04:26:50;;;;;;;32.17;28.53;;;9.80;90.40;;;8.48;92.32;98671.00;5059572;28;20464;-72
2021/10/18 04:29:18;;;;;;;35.57;29.73;;;9.70;90.50;;;8.42;92.67;98671.78;5066213;28;20459;-71
2021/10/18 04:31:46;;;;;;;36.50;30.17;;;9.70;90.80;;;8.59;92.22;98682.38;5064300;28;20471;-71
2021/10/18 04:34:13;;;;;;;34.43;28.37;;;9.70;90.80;;;8.63;91.63;98672.91;5065200;28;20559;-71
2021/10/18 04:36:41;;;;;;;36.07;29.10;;;9.70;90.70;;;8.50;92.49;98676.25;5066547;28;20534;-71
2021/10/18 04:39:08;;;;;;;39.77;30.90;;;9.70;90.80;;;8.38;92.48;98680.41;5065212;28;20440;-71
2021/10/18 04:41:35;;;;;;;38.73;30.33;;;9.60;90.90;;;8.54;92.41;98679.41;5061389;28;20483;-71
2021/10/18 04:44:02;;;;;;;37.97;28.30;;;9.70;90.90;;;8.58;92.07;98681.53;5063335;28;20516;-71
2021/10/18 04:46:29;;;;;;;37.27;29.10;;;9.80;90.80;;;8.67;91.89;98695.75;5065854;28;20464;-71
2021/10/18 04:48:57;;;;;;;37.67;29.70;;;9.80;90.80;;;8.69;91.38;98700.94;5086509;28;20484;-70
2021/10/18 04:51:24;;;;;;;39.73;30.47;;;9.90;90.60;;;8.52;92.24;98702.97;5064793;28;20460;-71
2021/10/18 04:53:51;;;;;;;41.30;29.47;;;9.80;90.50;;;8.49;92.56;98713.09;5066999;28;20941;-71
2021/10/18 04:56:19;;;;;;;36.47;28.83;;;9.70;90.60;;;8.59;92.16;98709.31;5061538;28;20453;-71
2021/10/18 04:58:46;;;;;;;39.73;29.83;;;9.80;90.60;;;8.84;92.74;98706.31;5064410;28;20465;-71
2021/10/18 05:01:13;;;;;;;39.67;31.70;;;9.90;91.30;;;8.77;91.04;98706.22;5061518;28;20530;-72
2021/10/18 05:03:40;;;;;;;41.83;32.53;;;10.00;88.80;;;8.82;90.39;98706.53;5078103;28;20489;-72
2021/10/18 05:06:08;;;;;;;42.83;30.20;;;10.00;88.90;;;8.82;91.60;98703.81;5067268;28;21065;-72
2021/10/18 05:08:35;;;;;;;39.00;30.87;;;10.00;89.70;;;8.83;91.22;98708.19;5064428;28;20500;-72
2021/10/18 05:11:02;;;;;;;40.70;32.90;;;10.00;88.80;;;8.97;89.99;98701.09;5066682;28;20957;-71
2021/10/18 05:13:29;;;;;;;43.50;31.67;;;10.10;88.30;;;8.69;90.90;98691.00;5065491;28;20461;-71
2021/10/18 05:15:56;;;;;;;42.97;30.70;;;10.00;87.50;;;8.75;90.79;98705.59;5058370;28;20539;-71
2021/10/18 05:18:24;;;;;;;38.60;30.93;;;10.00;88.70;;;8.53;91.26;98707.34;5057336;28;20521;-72
2021/10/18 05:20:53;;;;;;;41.73;31.17;;;9.90;89.50;;;8.37;93.64;98711.84;5060302;28;20983;-72
2021/10/18 05:23:21;;;;;;;42.03;31.93;;;9.70;90.90;;;8.54;92.78;98706.31;5055010;28;20457;-71
2021/10/18 05:25:48;;;;;;;43.03;31.17;;;9.70;91.40;;;8.65;92.05;98708.56;5057359;28;20531;-72
2021/10/18 05:28:15;;;;;;;43.77;30.40;;;9.80;90.80;;;8.49;92.17;98709.53;5075960;28;20550;-72
2021/10/18 05:30:42;;;;;;;48.17;32.57;;;9.70;90.90;;;8.51;92.72;98715.63;5057340;28;21140;-72
2021/10/18 05:33:09;;;;;;;43.97;30.87;;;9.70;91.00;;;8.46;92.31;98721.53;5060985;28;20571;-72
2021/10/18 05:35:37;;;;;;;44.80;31.40;;;9.70;91.00;;;8.50;93.51;98717.47;5056143;28;20507;-72
2021/10/18 05:38:04;;;;;;;46.67;32.43;;;9.60;91.60;;;8.36;92.77;98727.19;5064348;28;20479;-72
2021/10/18 05:40:33;;;;;;;45.70;31.73;;;9.70;90.70;;;8.50;92.71;98727.44;5067020;28;20492;-73
2021/10/18 05:43:00;;;;;;;45.37;33.20;;;9.70;91.10;;;8.48;92.74;98729.41;5064806;28;20557;-73
2021/10/18 05:45:33;;;;;;;49.50;34.43;;;9.60;91.30;;;8.78;91.03;98730.31;5061277;28;20469;-73
2021/10/18 05:48:02;;;;;;;46.10;32.37;;;9.90;90.70;;;8.90;90.25;98724.44;5060576;28;20472;-72
2021/10/18 05:50:33;;;;;;;55.53;36.43;;;10.00;88.60;;;8.46;92.01;98732.31;5067695;28;20531;-71
2021/10/18 05:53:01;;;;;;;47.97;33.17;;;9.80;89.70;;;8.53;91.96;98734.28;5070239;28;20812;-71
2021/10/18 05:55:28;;;;;;;48.90;33.80;;;9.80;90.60;;;8.52;90.96;98746.06;5070489;28;20702;-71
2021/10/18 05:58:00;;;;;;;50.40;34.77;;;9.80;89.80;;;8.40;91.84;98743.78;5075647;28;20555;-74
2021/10/18 06:00:28;;;;;;;53.13;34.90;;;9.70;90.00;;;8.42;91.52;98740.94;5064084;28;20465;-74
2021/10/18 06:02:56;;;;;;;50.50;32.43;;;9.70;90.10;;;8.43;92.08;98748.84;5072041;28;20472;-75
2021/10/18 06:05:24;;;;;;;54.30;36.77;;;9.70;90.20;;;8.22;93.06;98757.63;5067512;28;20791;-81
2021/10/18 06:07:52;;;;;;;51.70;35.33;;;9.60;90.70;;;8.27;93.04;98757.91;5067078;28;20472;-74
2021/10/18 06:10:19;;;;;;;50.10;34.00;;;9.50;91.20;;;8.21;93.39;98756.75;5070049;28;20478;-76
2021/10/18 06:12:47;;;;;;;58.17;36.50;;;9.60;91.00;;;8.20;94.43;98763.16;5065956;28;20460;-74
2021/10/18 06:15:15;;;;;;;50.97;32.93;;;9.40;92.20;;;8.36;93.33;98759.50;5066296;28;21049;-74
2021/10/18 06:17:44;;;;;;;51.97;33.07;;;9.60;91.50;;;8.62;91.99;98768.19;5066053;28;20453;-74
2021/10/18 06:20:12;;;;;;;52.70;35.53;;;9.70;91.30;;;8.58;91.23;98783.88;5062408;28;20529;-75
2021/10/18 06:22:40;;;;;;;52.47;35.87;;;9.80;90.30;;;8.42;92.15;98787.56;5062399;28;21363;-75
2021/10/18 06:25:08;;;;;;;51.57;34.93;;;9.70;90.30;;;8.44;92.48;98781.97;5056012;28;20476;-76
2021/10/18 06:27:36;;;;;;;56.43;35.63;;;9.70;90.40;;;8.52;92.11;98794.56;5065250;28;20972;-75
2021/10/18 06:30:04;;;;;;;54.10;36.27;;;9.70;90.50;;;8.35;92.71;98797.38;5072313;28;20458;-75
2021/10/18 06:32:32;;;;;;;52.00;34.60;;;9.60;91.00;;;8.38;92.67;98794.31;5061223;28;20729;-75
2021/10/18 06:35:00;;;;;;;57.20;34.87;;;9.60;91.20;;;8.40;93.35;98797.66;5065690;28;20507;-76
2021/10/18 06:37:45;;;;;;;60.83;36.53;;;9.60;91.40;;;8.36;92.97;98796.34;5060407;28;20613;-77
2021/10/18 06:40:13;;;;;;;57.97;37.37;;;9.60;91.00;;;8.34;92.67;98795.69;5059990;28;20456;-70
2021/10/18 06:42:40;;;;;;;53.33;35.33;;;9.60;90.70;;;8.40;92.66;98788.75;5065764;28;22224;-69
2021/10/18 06:45:09;;;;;;;50.10;32.30;;;9.70;90.50;;;8.53;92.92;98796.22;5062858;28;20483;-70
2021/10/18 06:47:38;;;;;;;53.30;34.83;;;9.70;91.10;;;8.63;91.41;98796.81;5049517;28;20473;-68
2021/10/18 06:50:09;;;;;;;49.73;32.67;;;9.80;90.00;;;8.47;92.24;98793.22;5053923;28;20468;-69
2021/10/18 06:52:39;;;;;;;56.50;34.00;;;9.70;90.00;;;8.67;91.34;98792.72;5064492;28;20491;-70
2021/10/18 06:55:09;;;;;;;49.67;32.83;;;9.90;90.20;;;8.54;91.06;98798.75;5064439;28;20476;-68
2021/10/18 06:57:36;;;;;;;47.50;32.17;;;9.80;88.70;;;8.55;90.69;98810.34;5060442;28;20472;-69
2021/10/18 07:00:04;;;;;;;49.90;34.87;;;9.80;88.80;;;8.47;91.55;98822.84;5065609;28;20551;-70
2021/10/18 07:02:31;;;;;;;58.23;33.10;;;9.80;89.20;;;8.40;92.01;98819.19;5062550;28;20563;-70
2021/10/18 07:04:59;;;;;;;50.17;31.87;;;9.70;90.00;;;8.65;91.24;98827.09;5063112;28;20583;-70
2021/10/18 07:07:27;;;;;;;47.40;32.73;;;9.80;90.00;;;8.53;91.01;98828.56;5065822;28;20563;-68
2021/10/18 07:09:59;;;;;;;51.07;31.10;;;9.80;89.40;;;8.67;90.54;98835.81;5063054;28;20491;-69
2021/10/18 07:12:28;;;;;;;52.43;32.90;;;9.90;88.80;;;8.53;90.65;98850.09;5063547;28;21242;-70
2021/10/18 07:14:55;;;;;;;48.43;31.83;;;9.80;88.50;;;8.42;91.00;98832.50;5063729;28;20480;-75
2021/10/18 07:17:23;;;;;;;45.20;29.90;;;9.80;88.40;;;8.64;90.77;98846.97;5062729;28;20453;-73
2021/10/18 07:19:50;;;;;;;49.80;31.47;;;9.80;89.30;;;8.49;89.91;98844.19;5066928;28;20448;-72
2021/10/18 07:22:21;;;;;;;52.03;30.57;;;9.80;88.60;;;8.37;91.35;98859.97;5065754;28;20449;-76
2021/10/18 07:24:48;;;;;;;46.77;31.23;;;9.70;89.00;;;8.36;91.04;98856.44;5066076;28;20831;-75
2021/10/18 07:27:15;;;;;;;48.73;30.73;;;9.70;88.50;;;8.32;91.09;98859.66;5062623;28;20455;-73
2021/10/18 07:29:42;;;;;;;48.50;30.90;;;9.60;89.20;;;8.38;90.82;98869.72;5064142;28;20491;-72
2021/10/18 07:32:09;;;;;;;42.60;29.10;;;9.60;88.90;;;8.87;89.50;98864.94;5058722;28;20458;-71
2021/10/18 07:34:36;;;;;;;44.70;29.10;;;9.90;89.70;;;8.72;88.95;98870.31;5067557;28;20979;-71
2021/10/18 07:37:07;;;;;;;45.20;29.57;;;10.00;86.20;;;8.63;89.58;98845.31;5064791;28;20464;-71
2021/10/18 07:39:36;;;;;;;45.13;28.73;;;9.90;88.00;;;8.76;90.05;98864.38;5064319;28;20543;-71
2021/10/18 07:42:04;;;;;;;52.87;33.27;;;10.00;87.60;;;8.65;90.10;98856.72;5066497;28;20453;-71
2021/10/18 07:44:31;;;;;;;52.83;32.20;;;9.90;88.70;;;8.92;88.63;98863.38;5066693;28;20480;-71
2021/10/18 07:46:59;;;;;;;46.50;30.27;;;10.00;87.00;;;9.05;87.92;98859.19;5065122;28;20886;-71
2021/10/18 07:49:28;;;;;;;43.40;29.80;;;10.20;86.00;;;8.86;89.61;98855.19;5066313;28;20475;-70
2021/10/18 07:51:56;;;;;;;48.40;30.53;;;10.00;86.40;;;8.86;88.70;98869.50;5067096;28;20444;-72
2021/10/18 07:54:26;;;;;;;42.87;29.03;;;10.00;85.30;;;8.72;88.42;98876.56;5065433;28;20533;-72
2021/10/18 07:56:54;;;;;;;47.60;30.70;;;10.00;85.10;;;8.38;90.03;98868.88;5083025;28;20457;-70
2021/10/18 07:59:21;;;;;;;41.47;27.33;;;9.80;86.80;;;8.55;89.59;98881.22;5066940;28;21332;-70
2021/10/18 08:01:49;;;;;;;48.07;30.10;;;9.80;87.50;;;8.69;89.44;98886.84;5064479;28;20543;-70
2021/10/18 08:04:16;;;;;;;45.00;29.17;;;9.90;87.90;;;8.70;88.45;98883.13;5065633;28;20858;-68
2021/10/18 08:06:43;;;;;;;44.80;28.80;;;9.90;86.40;;;8.62;89.40;98870.56;5066210;28;20456;-68
2021/10/18 08:09:10;;;;;;;46.67;29.77;;;9.90;86.60;;;8.99;88.92;98870.72;5063768;28;20630;-68
2021/10/18 08:11:37;;;;;;;46.87;29.60;;;10.10;86.40;;;8.88;88.47;98872.03;5060097;28;20457;-68
2021/10/18 08:14:06;;;;;;;47.10;31.10;;;10.10;85.20;;;8.85;87.80;98869.66;5063533;28;20456;-68
2021/10/18 08:16:33;;;;;;;47.97;31.73;;;10.10;84.30;;;9.34;86.21;98871.00;5060158;28;20466;-67
2021/10/18 08:19:00;;;;;;;42.87;30.27;;;10.30;84.50;;;9.03;86.74;98874.72;5061657;28;20531;-67
2021/10/18 08:21:27;;;;;;;41.87;30.50;;;10.30;83.20;;;8.99;85.92;98876.94;5067330;28;20522;-67
2021/10/18 08:23:55;;;;;;;43.93;29.90;;;10.30;82.80;;;8.99;87.05;98882.34;5065098;28;20462;-67
2021/10/18 08:26:22;;;;;;;42.40;29.00;;;10.20;83.20;;;9.34;85.49;98879.09;5064724;28;20544;-67
2021/10/18 08:28:49;;;;;;;42.87;30.93;;;10.40;83.10;;;9.26;84.77;98877.34;5062837;28;20550;-67
2021/10/18 08:31:17;;;;;;;43.20;30.80;;;10.50;82.00;;;9.50;85.48;98878.09;5065328;28;20544;-69
2021/10/18 08:33:44;;;;;;;44.27;28.27;;;10.50;82.90;;;9.33;85.53;98878.28;5064252;28;20448;-69
2021/10/18 08:36:12;;;;;;;42.30;28.40;;;10.50;81.80;;;9.47;84.66;98870.34;5067714;28;20488;-67
2021/10/18 08:38:47;;;;;;;47.00;32.33;;;10.60;81.90;;;9.10;86.00;98880.22;5063212;28;20530;-67
2021/10/18 08:41:18;;;;;;;42.37;30.50;;;10.40;81.80;;;9.24;86.26;98878.53;5066647;28;20448;-67
2021/10/18 08:46:31;;;;;;;43.60;31.20;;;10.50;82.00;;;9.30;84.84;98880.50;5070717;28;20444;-68
2021/10/18 08:48:59;;;;;;;42.30;29.90;;;10.50;81.80;;;9.84;82.45;98879.31;5065450;28;20500;-68
2021/10/18 08:51:27;;;;;;;42.03;28.90;;;10.70;81.00;;;9.53;83.41;98877.69;5068749;28;20480;-68
2021/10/18 08:53:55;;;;;;;38.50;27.53;;;10.70;80.70;;;9.60;83.31;98884.00;5060756;28;20552;-68
2021/10/18 08:56:22;;;;;;;38.57;28.43;;;10.80;80.40;;;9.73;82.47;98887.91;5066791;28;20542;-68
2021/10/18 08:58:50;;;;;;;38.63;28.90;;;10.80;79.80;;;10.20;80.30;98894.66;5075130;28;20458;-67
2021/10/18 09:01:18;;;;;;;40.30;26.80;;;11.20;79.30;;;9.84;81.72;98892.81;5064195;28;20448;-67
2021/10/18 09:03:46;;;;;;;36.80;26.90;;;11.10;78.70;;;10.20;81.00;98894.66;5061572;28;20452;-67
2021/10/18 09:06:17;;;;;;;37.47;28.73;;;11.20;78.80;;;10.04;80.43;98894.91;5068738;28;21054;-67
2021/10/18 09:08:47;;;;;;;38.20;28.03;;;11.20;77.90;;;9.74;81.04;98874.22;5063318;28;20553;-67
2021/10/18 09:11:18;;;;;;;35.93;27.27;;;11.10;78.00;;;10.20;80.14;98894.66;5067919;28;20491;-66
2021/10/18 09:13:56;;;;;;;37.27;28.33;;;11.10;78.50;;;10.47;80.08;98883.34;5070445;28;20522;-68
2021/10/18 09:16:26;;;;;;;36.70;26.93;;;11.40;77.90;;;10.38;78.65;98892.56;5075026;28;20464;-68
2021/10/18 09:19:09;;;;;;;37.47;27.30;;;11.50;76.80;;;10.11;78.89;98895.84;5068880;28;20475;-67
2021/10/18 09:21:39;;;;;;;42.60;28.90;;;11.50;76.20;;;10.23;79.47;98893.47;5065009;28;20451;-68
2021/10/18 09:24:07;;;;;;;40.50;29.83;;;11.40;76.70;;;10.12;79.79;98902.06;5064511;28;21078;-68
2021/10/18 09:26:36;;;;;;;35.53;26.40;;;11.30;76.50;;;10.41;79.40;98895.75;5076524;28;20455;-68
2021/10/18 09:29:07;;;;;;;36.80;27.57;;;11.40;77.00;;;10.19;79.26;98900.28;5070363;28;20476;-68
2021/10/18 09:31:37;;;;;;;36.97;27.87;;;11.40;76.10;;;10.13;78.76;98903.72;5066415;28;20456;-67
2021/10/18 09:34:09;;;;;;;32.97;25.03;;;11.30;75.60;;;10.54;77.12;98899.59;5059510;28;21139;-68
2021/10/18 09:36:36;;;;;;;33.83;26.63;;;11.50;75.20;;;10.82;77.64;98899.66;5068022;28;20475;-69
2021/10/18 09:39:28;;;;;;;39.67;29.07;;;11.80;75.70;;;10.93;75.49;98909.09;5069192;28;20824;-68
2021/10/18 09:42:02;;;;;;;35.43;27.47;;;12.10;73.70;;;10.76;76.10;98914.78;5074791;28;20460;-68
2021/10/18 10:51:30;;;;;;;31.90;27.70;;;12.90;67.00;;;11.97;69.97;98884.88;5067209;28;20452;-68
2021/10/18 10:54:01;;;;;;;27.17;23.43;;;13.10;66.80;;;12.60;66.90;98883.81;5074699;28;20545;-69
2021/10/18 10:56:42;;;;;;;25.97;22.83;;;13.50;65.80;;;13.07;65.76;98873.97;5062490;28;20554;-69
2021/10/18 10:59:19;;;;;;;26.37;23.60;;;13.90;65.70;;;12.60;67.37;98872.97;5063842;28;20963;-68
2021/10/18 11:01:59;;;;;;;33.80;24.67;;;13.80;65.00;;;12.62;66.92;98867.31;5066775;28;20451;-68
2021/10/18 11:04:47;;;;;;;26.40;22.83;;;13.80;64.70;;;12.67;67.10;98864.84;5066700;28;20475;-67
2021/10/18 11:07:22;;;;;;;27.13;24.23;;;13.70;64.80;;;12.95;65.68;98868.38;5070424;28;20944;-69
2021/10/18 11:09:52;;;;;;;26.70;23.17;;;14.00;64.40;;;13.19;65.43;98850.59;5063832;28;20525;-71
2021/10/18 11:12:28;;;;;;;28.60;24.20;;;14.10;64.30;;;12.97;65.57;98861.69;5062690;28;20330;-66
2021/10/18 11:15:07;;;;;;;25.07;22.57;;;14.20;63.90;;;13.60;64.23;98852.19;5055818;28;20495;-68
2021/10/18 11:17:38;;;;;;;26.60;23.70;;;14.40;63.80;;;13.13;64.58;98859.59;5061510;28;20505;-68
2021/10/18 11:20:09;;;;;;;25.67;22.90;;;14.20;63.00;;;12.58;66.12;98844.38;5064694;28;20476;-68
2021/10/18 11:22:39;;;;;;;25.27;22.30;;;14.00;63.20;;;12.19;67.44;98861.22;5063586;28;21039;-68
2021/10/18 11:25:12;;;;;;;26.33;22.70;;;13.50;63.60;;;11.88;68.60;98857.16;5058637;28;20503;-68
2021/10/18 11:27:43;;;;;;;30.10;24.70;;;13.20;64.10;;;12.28;68.07;98855.63;5065396;28;20483;-68
2021/10/18 11:30:14;;;;;;;27.17;23.13;;;13.30;64.70;;;12.38;67.36;98855.22;5072128;28;20636;-68
2021/10/18 11:32:42;;;;;;;25.97;21.77;;;13.40;64.30;;;12.69;66.61;98857.31;5062549;28;20496;-69